sensor_id;sensor_type;location;lat;lon;timestamp;pressure;altitude;pressure_sealevel;temperature;humidity
56042;BME280;48756;41.374;2.066;2022-07-22T00:00:59;101083.97;;;26.06;68.85
56042;BME280;48756;41.374;2.066;2022-07-22T00:03:24;101079.94;;;26.25;67.28
56042;BME280;48756;41.374;2.066;2022-07-22T00:05:50;101075.72;;;26.21;67.11
56042;BME280;48756;41.374;2.066;2022-07-22T00:08:15;101071.13;;;26.23;68.18
56042;BME280;48756;41.374;2.066;2022-07-22T00:10:41;101075.13;;;26.43;66.59
56042;BME280;48756;41.374;2.066;2022-07-22T00:13:07;101074.16;;;26.57;67.01
56042;BME280;48756;41.374;2.066;2022-07-22T00:15:32;101073.28;;;26.69;65.84
56042;BME280;48756;41.374;2.066;2022-07-22T00:17:57;101066.03;;;26.59;65.59
56042;BME280;48756;41.374;2.066;2022-07-22T00:20:23;101064.41;;;26.69;65.36
56042;BME280;48756;41.374;2.066;2022-07-22T00:22:48;101065.28;;;26.57;65.68
56042;BME280;48756;41.374;2.066;2022-07-22T00:25:14;101058.56;;;26.51;66.34
56042;BME280;48756;41.374;2.066;2022-07-22T00:27:39;101062.09;;;26.51;66.03
56042;BME280;48756;41.374;2.066;2022-07-22T00:30:05;101057.50;;;26.53;65.86
56042;BME280;48756;41.374;2.066;2022-07-22T00:32:30;101052.56;;;26.60;65.62
56042;BME280;48756;41.374;2.066;2022-07-22T00:34:56;101053.28;;;26.62;65.93
56042;BME280;48756;41.374;2.066;2022-07-22T00:37:21;101053.63;;;26.58;66.09
56042;BME280;48756;41.374;2.066;2022-07-22T00:39:47;101049.88;;;26.60;66.95
56042;BME280;48756;41.374;2.066;2022-07-22T00:42:15;101050.44;;;26.52;66.36
56042;BME280;48756;41.374;2.066;2022-07-22T00:44:41;101061.19;;;26.64;66.18
56042;BME280;48756;41.374;2.066;2022-07-22T00:47:06;101049.13;;;26.58;65.75
56042;BME280;48756;41.374;2.066;2022-07-22T00:49:32;101052.66;;;26.71;65.45
56042;BME280;48756;41.374;2.066;2022-07-22T00:51:57;101050.19;;;26.68;65.45
56042;BME280;48756;41.374;2.066;2022-07-22T00:54:23;101045.06;;;26.65;65.58
56042;BME280;48756;41.374;2.066;2022-07-22T00:56:48;101045.63;;;26.45;66.89
56042;BME280;48756;41.374;2.066;2022-07-22T00:59:14;101035.44;;;26.63;65.99
56042;BME280;48756;41.374;2.066;2022-07-22T01:01:39;101042.31;;;26.54;66.30
56042;BME280;48756;41.374;2.066;2022-07-22T01:04:05;101043.28;;;26.40;66.92
56042;BME280;48756;41.374;2.066;2022-07-22T01:06:30;101047.53;;;26.43;67.28
56042;BME280;48756;41.374;2.066;2022-07-22T01:09:03;101042.41;;;26.52;66.80
56042;BME280;48756;41.374;2.066;2022-07-22T01:11:28;101037.31;;;26.37;67.46
56042;BME280;48756;41.374;2.066;2022-07-22T01:13:54;101034.75;;;26.35;67.23
56042;BME280;48756;41.374;2.066;2022-07-22T01:16:20;101040.09;;;26.35;66.34
56042;BME280;48756;41.374;2.066;2022-07-22T01:18:46;101036.56;;;26.35;67.12
56042;BME280;48756;41.374;2.066;2022-07-22T01:21:12;101032.38;;;26.43;66.49
56042;BME280;48756;41.374;2.066;2022-07-22T01:23:38;101032.03;;;26.48;66.66
56042;BME280;48756;41.374;2.066;2022-07-22T01:26:04;101042.19;;;26.43;67.29
56042;BME280;48756;41.374;2.066;2022-07-22T01:28:30;101036.13;;;26.41;66.42
56042;BME280;48756;41.374;2.066;2022-07-22T01:30:55;101036.44;;;26.36;66.01
56042;BME280;48756;41.374;2.066;2022-07-22T01:33:21;101031.06;;;26.23;67.38
56042;BME280;48756;41.374;2.066;2022-07-22T01:35:46;101022.09;;;26.24;67.15
56042;BME280;48756;41.374;2.066;2022-07-22T01:38:12;101028.63;;;26.20;67.78
56042;BME280;48756;41.374;2.066;2022-07-22T01:40:38;101021.69;;;26.18;67.16
56042;BME280;48756;41.374;2.066;2022-07-22T01:43:03;101025.94;;;26.20;68.00
56042;BME280;48756;41.374;2.066;2022-07-22T01:45:29;101027.34;;;26.26;67.29
56042;BME280;48756;41.374;2.066;2022-07-22T01:47:54;101020.28;;;26.25;68.08
56042;BME280;48756;41.374;2.066;2022-07-22T01:50:20;101025.44;;;26.28;66.73
56042;BME280;48756;41.374;2.066;2022-07-22T01:52:45;101030.31;;;26.21;67.75
56042;BME280;48756;41.374;2.066;2022-07-22T01:55:11;101021.81;;;26.04;68.77
56042;BME280;48756;41.374;2.066;2022-07-22T01:57:37;101024.97;;;25.96;68.02
56042;BME280;48756;41.374;2.066;2022-07-22T02:00:06;101027.66;;;25.96;68.14
56042;BME280;48756;41.374;2.066;2022-07-22T02:02:32;101027.88;;;25.93;68.27
56042;BME280;48756;41.374;2.066;2022-07-22T02:04:58;101018.69;;;25.84;69.32
56042;BME280;48756;41.374;2.066;2022-07-22T02:07:23;101020.13;;;25.63;69.08
56042;BME280;48756;41.374;2.066;2022-07-22T02:09:51;101017.50;;;25.36;71.08
56042;BME280;48756;41.374;2.066;2022-07-22T02:12:16;101015.72;;;25.22;71.45
56042;BME280;48756;41.374;2.066;2022-07-22T02:14:42;101015.63;;;25.24;71.51
56042;BME280;48756;41.374;2.066;2022-07-22T02:17:08;101012.50;;;25.44;71.28
56042;BME280;48756;41.374;2.066;2022-07-22T02:19:33;101014.50;;;25.41;70.81
56042;BME280;48756;41.374;2.066;2022-07-22T02:21:59;101012.00;;;25.64;70.12
56042;BME280;48756;41.374;2.066;2022-07-22T02:24:24;101008.09;;;25.70;70.47
56042;BME280;48756;41.374;2.066;2022-07-22T02:26:50;101000.41;;;25.78;70.43
56042;BME280;48756;41.374;2.066;2022-07-22T02:29:15;101009.44;;;25.63;71.24
56042;BME280;48756;41.374;2.066;2022-07-22T02:31:40;101009.75;;;25.58;71.46
56042;BME280;48756;41.374;2.066;2022-07-22T02:34:06;101006.41;;;25.55;71.08
56042;BME280;48756;41.374;2.066;2022-07-22T02:36:31;100999.16;;;25.57;70.45
56042;BME280;48756;41.374;2.066;2022-07-22T02:38:57;101006.88;;;25.61;70.17
56042;BME280;48756;41.374;2.066;2022-07-22T02:41:22;101002.00;;;25.68;70.15
56042;BME280;48756;41.374;2.066;2022-07-22T02:43:48;100998.78;;;25.63;70.73
56042;BME280;48756;41.374;2.066;2022-07-22T02:46:13;100992.97;;;25.56;70.29
56042;BME280;48756;41.374;2.066;2022-07-22T02:48:38;100996.16;;;25.49;70.94
56042;BME280;48756;41.374;2.066;2022-07-22T02:51:04;100996.06;;;25.50;71.18
56042;BME280;48756;41.374;2.066;2022-07-22T02:53:29;100995.63;;;25.44;71.17
56042;BME280;48756;41.374;2.066;2022-07-22T02:55:55;100986.13;;;25.52;70.45
56042;BME280;48756;41.374;2.066;2022-07-22T02:58:20;100981.22;;;25.46;70.68
56042;BME280;48756;41.374;2.066;2022-07-22T03:00:46;100984.09;;;25.43;71.06
56042;BME280;48756;41.374;2.066;2022-07-22T03:03:11;100983.56;;;25.38;71.20
56042;BME280;48756;41.374;2.066;2022-07-22T03:05:36;100990.34;;;25.29;72.04
56042;BME280;48756;41.374;2.066;2022-07-22T03:08:02;100986.19;;;25.25;72.17
56042;BME280;48756;41.374;2.066;2022-07-22T03:10:27;100981.19;;;25.33;71.43
56042;BME280;48756;41.374;2.066;2022-07-22T03:12:53;100983.69;;;25.37;71.76
56042;BME280;48756;41.374;2.066;2022-07-22T03:15:18;100983.28;;;25.16;72.42
56042;BME280;48756;41.374;2.066;2022-07-22T03:17:43;100978.16;;;25.13;72.55
56042;BME280;48756;41.374;2.066;2022-07-22T03:20:09;100979.03;;;25.26;71.86
56042;BME280;48756;41.374;2.066;2022-07-22T03:22:35;100977.34;;;25.25;71.78
56042;BME280;48756;41.374;2.066;2022-07-22T03:25:01;100978.19;;;25.25;72.13
56042;BME280;48756;41.374;2.066;2022-07-22T03:27:26;100983.22;;;25.30;71.86
56042;BME280;48756;41.374;2.066;2022-07-22T03:29:52;100981.59;;;25.27;71.96
56042;BME280;48756;41.374;2.066;2022-07-22T03:32:17;100977.03;;;25.02;72.40
56042;BME280;48756;41.374;2.066;2022-07-22T03:34:43;100976.16;;;24.75;74.79
56042;BME280;48756;41.374;2.066;2022-07-22T03:37:08;100981.25;;;24.92;74.58
56042;BME280;48756;41.374;2.066;2022-07-22T03:39:34;100976.91;;;24.77;74.17
56042;BME280;48756;41.374;2.066;2022-07-22T03:41:59;100973.16;;;24.53;75.85
56042;BME280;48756;41.374;2.066;2022-07-22T03:44:25;100976.22;;;24.32;77.07
56042;BME280;48756;41.374;2.066;2022-07-22T03:46:50;100973.06;;;24.40;77.16
56042;BME280;48756;41.374;2.066;2022-07-22T03:49:15;100977.44;;;24.41;76.31
56042;BME280;48756;41.374;2.066;2022-07-22T03:51:41;100965.81;;;24.56;75.80
56042;BME280;48756;41.374;2.066;2022-07-22T03:54:06;100971.97;;;24.71;74.92
56042;BME280;48756;41.374;2.066;2022-07-22T03:56:32;100963.66;;;24.49;76.01
56042;BME280;48756;41.374;2.066;2022-07-22T03:58:57;100971.56;;;24.36;77.08
56042;BME280;48756;41.374;2.066;2022-07-22T04:01:23;100967.63;;;24.41;77.00
56042;BME280;48756;41.374;2.066;2022-07-22T04:03:48;100973.06;;;24.54;76.58
56042;BME280;48756;41.374;2.066;2022-07-22T04:06:14;100970.50;;;24.38;77.53
56042;BME280;48756;41.374;2.066;2022-07-22T04:08:39;100968.78;;;24.37;77.83
56042;BME280;48756;41.374;2.066;2022-07-22T04:11:05;100968.50;;;24.42;78.50
56042;BME280;48756;41.374;2.066;2022-07-22T04:13:30;100977.72;;;24.36;77.94
56042;BME280;48756;41.374;2.066;2022-07-22T04:15:55;100969.19;;;24.46;77.53
56042;BME280;48756;41.374;2.066;2022-07-22T04:18:21;100971.91;;;24.44;76.85
56042;BME280;48756;41.374;2.066;2022-07-22T04:20:46;100978.13;;;24.45;76.62
56042;BME280;48756;41.374;2.066;2022-07-22T04:23:12;100977.53;;;24.54;75.98
56042;BME280;48756;41.374;2.066;2022-07-22T04:25:37;100980.09;;;24.55;75.69
56042;BME280;48756;41.374;2.066;2022-07-22T04:28:03;100987.88;;;24.58;74.50
56042;BME280;48756;41.374;2.066;2022-07-22T04:30:28;100992.09;;;24.48;74.79
56042;BME280;48756;41.374;2.066;2022-07-22T04:32:53;100987.72;;;24.47;74.25
56042;BME280;48756;41.374;2.066;2022-07-22T04:35:19;100993.22;;;24.44;73.98
56042;BME280;48756;41.374;2.066;2022-07-22T04:37:44;100992.09;;;24.48;73.33
56042;BME280;48756;41.374;2.066;2022-07-22T04:40:10;100996.56;;;24.48;73.40
56042;BME280;48756;41.374;2.066;2022-07-22T04:42:36;100999.59;;;24.41;73.43
56042;BME280;48756;41.374;2.066;2022-07-22T04:45:02;101001.06;;;24.47;73.18
56042;BME280;48756;41.374;2.066;2022-07-22T04:47:27;100994.06;;;24.59;71.58
56042;BME280;48756;41.374;2.066;2022-07-22T04:49:53;100992.75;;;24.52;71.56
56042;BME280;48756;41.374;2.066;2022-07-22T04:52:18;100993.97;;;24.60;71.18
56042;BME280;48756;41.374;2.066;2022-07-22T04:54:44;100998.84;;;24.68;71.15
56042;BME280;48756;41.374;2.066;2022-07-22T04:57:09;100997.47;;;24.75;71.89
56042;BME280;48756;41.374;2.066;2022-07-22T04:59:35;100995.56;;;24.77;71.72
56042;BME280;48756;41.374;2.066;2022-07-22T05:02:00;100999.72;;;24.95;69.92
56042;BME280;48756;41.374;2.066;2022-07-22T05:04:26;100994.44;;;25.08;67.92
56042;BME280;48756;41.374;2.066;2022-07-22T05:06:51;100989.34;;;24.91;68.72
56042;BME280;48756;41.374;2.066;2022-07-22T05:09:16;100994.47;;;24.94;68.68
56042;BME280;48756;41.374;2.066;2022-07-22T05:11:42;101004.22;;;24.81;70.49
56042;BME280;48756;41.374;2.066;2022-07-22T05:14:07;101003.06;;;24.85;69.91
56042;BME280;48756;41.374;2.066;2022-07-22T05:16:35;101002.34;;;25.10;69.42
56042;BME280;48756;41.374;2.066;2022-07-22T05:19:02;100998.00;;;24.94;69.36
56042;BME280;48756;41.374;2.066;2022-07-22T05:21:27;100997.63;;;25.00;69.94
56042;BME280;48756;41.374;2.066;2022-07-22T05:23:52;100996.53;;;25.17;68.95
56042;BME280;48756;41.374;2.066;2022-07-22T05:26:18;100993.00;;;25.17;69.51
56042;BME280;48756;41.374;2.066;2022-07-22T05:28:43;100991.00;;;25.33;68.48
56042;BME280;48756;41.374;2.066;2022-07-22T05:31:09;100986.78;;;25.43;68.77
56042;BME280;48756;41.374;2.066;2022-07-22T05:33:34;100988.06;;;25.50;68.20
56042;BME280;48756;41.374;2.066;2022-07-22T05:35:59;100988.56;;;25.82;67.18
56042;BME280;48756;41.374;2.066;2022-07-22T05:38:25;100995.81;;;25.68;67.08
56042;BME280;48756;41.374;2.066;2022-07-22T05:40:50;100988.38;;;25.85;65.77
56042;BME280;48756;41.374;2.066;2022-07-22T05:43:15;100988.13;;;25.76;65.77
56042;BME280;48756;41.374;2.066;2022-07-22T05:45:41;100985.16;;;25.80;65.64
56042;BME280;48756;41.374;2.066;2022-07-22T05:48:06;100988.09;;;25.63;64.97
56042;BME280;48756;41.374;2.066;2022-07-22T05:50:32;100989.28;;;25.72;64.51
56042;BME280;48756;41.374;2.066;2022-07-22T05:52:57;100989.19;;;25.73;63.87
56042;BME280;48756;41.374;2.066;2022-07-22T05:55:23;100993.41;;;25.50;64.54
56042;BME280;48756;41.374;2.066;2022-07-22T05:57:48;100990.31;;;25.56;63.82
56042;BME280;48756;41.374;2.066;2022-07-22T06:00:13;100995.09;;;25.51;63.46
56042;BME280;48756;41.374;2.066;2022-07-22T06:02:39;100995.75;;;25.55;64.07
56042;BME280;48756;41.374;2.066;2022-07-22T06:05:05;100993.91;;;25.82;63.13
56042;BME280;48756;41.374;2.066;2022-07-22T06:07:30;100993.69;;;25.98;61.73
56042;BME280;48756;41.374;2.066;2022-07-22T06:09:56;100998.28;;;25.96;61.37
56042;BME280;48756;41.374;2.066;2022-07-22T06:12:22;100996.47;;;25.97;61.70
56042;BME280;48756;41.374;2.066;2022-07-22T06:14:47;100998.59;;;26.17;60.23
56042;BME280;48756;41.374;2.066;2022-07-22T06:17:13;101003.72;;;26.33;59.19
56042;BME280;48756;41.374;2.066;2022-07-22T06:19:38;101004.91;;;26.41;58.32
56042;BME280;48756;41.374;2.066;2022-07-22T06:22:04;101001.78;;;26.47;58.64
56042;BME280;48756;41.374;2.066;2022-07-22T06:24:29;100992.88;;;26.72;57.31
56042;BME280;48756;41.374;2.066;2022-07-22T06:26:55;101004.09;;;26.65;56.79
56042;BME280;48756;41.374;2.066;2022-07-22T06:29:20;101004.91;;;26.54;57.45
56042;BME280;48756;41.374;2.066;2022-07-22T06:31:46;100993.84;;;26.71;56.14
56042;BME280;48756;41.374;2.066;2022-07-22T06:34:11;100991.09;;;26.84;55.79
56042;BME280;48756;41.374;2.066;2022-07-22T06:36:36;100984.34;;;26.91;56.31
56042;BME280;48756;41.374;2.066;2022-07-22T06:39:02;100991.34;;;27.18;54.99
56042;BME280;48756;41.374;2.066;2022-07-22T06:41:27;100993.09;;;27.06;55.33
56042;BME280;48756;41.374;2.066;2022-07-22T06:43:53;100997.25;;;27.10;54.87
56042;BME280;48756;41.374;2.066;2022-07-22T06:46:18;100990.91;;;27.11;54.78
56042;BME280;48756;41.374;2.066;2022-07-22T06:48:44;100998.91;;;27.35;55.59
56042;BME280;48756;41.374;2.066;2022-07-22T06:51:09;100994.00;;;27.18;55.53
56042;BME280;48756;41.374;2.066;2022-07-22T06:53:35;101003.09;;;27.39;54.47
56042;BME280;48756;41.374;2.066;2022-07-22T06:56:00;101003.97;;;27.51;54.70
56042;BME280;48756;41.374;2.066;2022-07-22T06:58:26;100997.53;;;27.53;54.51
56042;BME280;48756;41.374;2.066;2022-07-22T07:00:51;101005.94;;;27.60;53.54
56042;BME280;48756;41.374;2.066;2022-07-22T07:03:17;101009.91;;;27.78;53.99
56042;BME280;48756;41.374;2.066;2022-07-22T07:05:43;101007.97;;;27.69;53.84
56042;BME280;48756;41.374;2.066;2022-07-22T07:08:08;101008.50;;;27.85;52.52
56042;BME280;48756;41.374;2.066;2022-07-22T07:10:34;101005.84;;;28.19;51.36
56042;BME280;48756;41.374;2.066;2022-07-22T07:12:59;101012.34;;;28.39;50.42
56042;BME280;48756;41.374;2.066;2022-07-22T07:15:25;101016.22;;;28.57;50.11
56042;BME280;48756;41.374;2.066;2022-07-22T07:17:51;101003.81;;;28.45;49.72
56042;BME280;48756;41.374;2.066;2022-07-22T07:20:17;101001.47;;;28.18;50.60
56042;BME280;48756;41.374;2.066;2022-07-22T07:22:42;101004.41;;;28.26;50.07
56042;BME280;48756;41.374;2.066;2022-07-22T07:25:08;101008.31;;;28.55;49.23
56042;BME280;48756;41.374;2.066;2022-07-22T07:27:34;101012.56;;;28.58;49.13
56042;BME280;48756;41.374;2.066;2022-07-22T07:29:59;101019.63;;;28.70;49.88
56042;BME280;48756;41.374;2.066;2022-07-22T07:32:25;101018.53;;;28.61;49.85
56042;BME280;48756;41.374;2.066;2022-07-22T07:34:50;101013.69;;;28.55;50.31
56042;BME280;48756;41.374;2.066;2022-07-22T07:37:16;101013.03;;;28.85;49.90
56042;BME280;48756;41.374;2.066;2022-07-22T07:39:41;101011.09;;;28.76;49.73
56042;BME280;48756;41.374;2.066;2022-07-22T07:42:07;101012.41;;;28.93;48.96
56042;BME280;48756;41.374;2.066;2022-07-22T07:44:32;101011.91;;;28.99;48.25
56042;BME280;48756;41.374;2.066;2022-07-22T07:46:57;101012.53;;;28.80;48.71
56042;BME280;48756;41.374;2.066;2022-07-22T07:49:23;101011.53;;;29.04;47.95
56042;BME280;48756;41.374;2.066;2022-07-22T07:51:48;101013.63;;;28.89;48.33
56042;BME280;48756;41.374;2.066;2022-07-22T07:54:14;101015.16;;;29.14;48.35
56042;BME280;48756;41.374;2.066;2022-07-22T07:56:39;101013.94;;;29.39;47.80
56042;BME280;48756;41.374;2.066;2022-07-22T07:59:05;101019.25;;;29.61;47.57
56042;BME280;48756;41.374;2.066;2022-07-22T08:01:30;101019.59;;;29.47;47.77
56042;BME280;48756;41.374;2.066;2022-07-22T08:03:56;101020.44;;;29.68;48.00
56042;BME280;48756;41.374;2.066;2022-07-22T08:06:21;101027.25;;;29.72;47.71
56042;BME280;48756;41.374;2.066;2022-07-22T08:08:46;101024.56;;;29.72;46.96
56042;BME280;48756;41.374;2.066;2022-07-22T08:11:12;101029.41;;;29.78;46.95
56042;BME280;48756;41.374;2.066;2022-07-22T08:13:37;101032.38;;;30.17;46.90
56042;BME280;48756;41.374;2.066;2022-07-22T08:16:03;101030.53;;;30.17;47.94
56042;BME280;48756;41.374;2.066;2022-07-22T08:18:28;101029.50;;;30.39;47.30
56042;BME280;48756;41.374;2.066;2022-07-22T08:20:54;101025.19;;;30.27;47.04
56042;BME280;48756;41.374;2.066;2022-07-22T08:23:19;101027.50;;;30.72;46.77
56042;BME280;48756;41.374;2.066;2022-07-22T08:25:45;101010.56;;;31.00;47.16
56042;BME280;48756;41.374;2.066;2022-07-22T08:28:10;101016.19;;;30.68;49.57
56042;BME280;48756;41.374;2.066;2022-07-22T08:30:35;101014.19;;;31.30;49.21
56042;BME280;48756;41.374;2.066;2022-07-22T08:33:01;101016.75;;;31.51;50.36
56042;BME280;48756;41.374;2.066;2022-07-22T08:35:26;101020.56;;;31.48;50.24
56042;BME280;48756;41.374;2.066;2022-07-22T08:37:52;101013.44;;;31.66;49.71
56042;BME280;48756;41.374;2.066;2022-07-22T08:40:18;101016.84;;;31.88;51.62
56042;BME280;48756;41.374;2.066;2022-07-22T08:42:45;101020.53;;;32.43;50.39
56042;BME280;48756;41.374;2.066;2022-07-22T08:45:10;101016.09;;;32.05;52.23
56042;BME280;48756;41.374;2.066;2022-07-22T08:47:36;101018.38;;;32.47;50.74
56042;BME280;48756;41.374;2.066;2022-07-22T08:50:02;101021.59;;;32.78;51.15
56042;BME280;48756;41.374;2.066;2022-07-22T08:52:28;101019.50;;;32.99;52.06
56042;BME280;48756;41.374;2.066;2022-07-22T08:54:54;101016.75;;;33.09;52.81
56042;BME280;48756;41.374;2.066;2022-07-22T08:57:19;101010.22;;;33.29;51.60
56042;BME280;48756;41.374;2.066;2022-07-22T08:59:57;101012.56;;;33.68;50.10
56042;BME280;48756;41.374;2.066;2022-07-22T09:02:23;101012.22;;;33.45;51.38
56042;BME280;48756;41.374;2.066;2022-07-22T09:04:53;101008.25;;;33.04;50.78
56042;BME280;48756;41.374;2.066;2022-07-22T09:07:25;101010.63;;;33.78;50.03
56042;BME280;48756;41.374;2.066;2022-07-22T09:09:51;101006.19;;;33.95;49.07
56042;BME280;48756;41.374;2.066;2022-07-22T09:12:16;101011.66;;;33.59;50.24
56042;BME280;48756;41.374;2.066;2022-07-22T09:14:49;101005.28;;;33.42;50.79
56042;BME280;48756;41.374;2.066;2022-07-22T09:17:24;101004.94;;;33.63;49.53
56042;BME280;48756;41.374;2.066;2022-07-22T09:19:50;101004.63;;;33.48;50.07
56042;BME280;48756;41.374;2.066;2022-07-22T09:22:29;101009.38;;;33.90;49.17
56042;BME280;48756;41.374;2.066;2022-07-22T09:24:55;100997.88;;;33.88;48.62
56042;BME280;48756;41.374;2.066;2022-07-22T09:27:23;100992.06;;;33.57;48.87
56042;BME280;48756;41.374;2.066;2022-07-22T09:29:50;100991.28;;;34.17;49.07
56042;BME280;48756;41.374;2.066;2022-07-22T09:32:15;101003.31;;;34.56;47.85
56042;BME280;48756;41.374;2.066;2022-07-22T09:34:41;100998.16;;;34.37;47.31
56042;BME280;48756;41.374;2.066;2022-07-22T09:37:06;100993.72;;;33.76;48.21
56042;BME280;48756;41.374;2.066;2022-07-22T09:39:32;100991.63;;;33.88;47.99
56042;BME280;48756;41.374;2.066;2022-07-22T09:41:58;100992.63;;;33.69;48.44
56042;BME280;48756;41.374;2.066;2022-07-22T09:44:24;100996.69;;;34.17;47.90
56042;BME280;48756;41.374;2.066;2022-07-22T09:46:49;100994.69;;;34.53;46.62
56042;BME280;48756;41.374;2.066;2022-07-22T09:49:34;100984.47;;;34.38;47.69
56042;BME280;48756;41.374;2.066;2022-07-22T09:52:00;100984.09;;;33.99;47.41
56042;BME280;48756;41.374;2.066;2022-07-22T09:54:26;100969.63;;;34.93;45.96
56042;BME280;48756;41.374;2.066;2022-07-22T09:56:53;100980.63;;;34.99;45.53
56042;BME280;48756;41.374;2.066;2022-07-22T09:59:18;100985.13;;;34.83;45.38
56042;BME280;48756;41.374;2.066;2022-07-22T10:01:44;100976.06;;;34.50;45.05
56042;BME280;48756;41.374;2.066;2022-07-22T10:04:11;100974.25;;;35.57;42.36
56042;BME280;48756;41.374;2.066;2022-07-22T10:06:37;100984.22;;;35.08;42.84
56042;BME280;48756;41.374;2.066;2022-07-22T10:09:03;100971.44;;;34.84;43.60
56042;BME280;48756;41.374;2.066;2022-07-22T10:11:29;100971.06;;;34.79;43.43
56042;BME280;48756;41.374;2.066;2022-07-22T10:13:55;100963.97;;;34.70;43.16
56042;BME280;48756;41.374;2.066;2022-07-22T10:16:21;100969.31;;;35.12;42.52
56042;BME280;48756;41.374;2.066;2022-07-22T10:18:47;100970.63;;;35.00;42.91
56042;BME280;48756;41.374;2.066;2022-07-22T10:21:12;100965.72;;;35.04;43.11
56042;BME280;48756;41.374;2.066;2022-07-22T10:26:51;100965.56;;;34.97;42.26
56042;BME280;48756;41.374;2.066;2022-07-22T10:34:37;100964.59;;;35.39;41.52
56042;BME280;48756;41.374;2.066;2022-07-22T10:37:02;100961.13;;;35.94;40.16
56042;BME280;48756;41.374;2.066;2022-07-22T10:39:28;100959.34;;;35.45;40.70
56042;BME280;48756;41.374;2.066;2022-07-22T10:41:53;100949.34;;;35.38;41.20
56042;BME280;48756;41.374;2.066;2022-07-22T10:47:02;100951.47;;;35.75;40.06
56042;BME280;48756;41.374;2.066;2022-07-22T10:49:28;100949.28;;;35.70;40.10
56042;BME280;48756;41.374;2.066;2022-07-22T10:52:12;100946.22;;;35.73;40.02
56042;BME280;48756;41.374;2.066;2022-07-22T10:57:30;100946.16;;;35.34;41.49
56042;BME280;48756;41.374;2.066;2022-07-22T10:59:55;100947.47;;;35.54;40.44
56042;BME280;48756;41.374;2.066;2022-07-22T11:02:21;100940.72;;;35.34;41.36
56042;BME280;48756;41.374;2.066;2022-07-22T11:04:47;100948.63;;;35.84;40.70
56042;BME280;48756;41.374;2.066;2022-07-22T11:07:12;100951.72;;;35.41;40.68
56042;BME280;48756;41.374;2.066;2022-07-22T11:09:38;100953.97;;;34.79;42.02
56042;BME280;48756;41.374;2.066;2022-07-22T11:12:03;100947.31;;;35.32;41.15
56042;BME280;48756;41.374;2.066;2022-07-22T11:14:37;100945.56;;;35.79;39.99
56042;BME280;48756;41.374;2.066;2022-07-22T11:17:06;100946.78;;;35.28;41.11
56042;BME280;48756;41.374;2.066;2022-07-22T11:19:32;100954.06;;;35.84;40.46
56042;BME280;48756;41.374;2.066;2022-07-22T11:22:01;100953.88;;;35.21;41.47
56042;BME280;48756;41.374;2.066;2022-07-22T11:24:28;100947.78;;;35.27;40.88
56042;BME280;48756;41.374;2.066;2022-07-22T11:26:54;100945.78;;;35.37;41.23
56042;BME280;48756;41.374;2.066;2022-07-22T11:29:29;100940.72;;;35.42;40.98
56042;BME280;48756;41.374;2.066;2022-07-22T11:31:56;100943.22;;;35.60;40.86
56042;BME280;48756;41.374;2.066;2022-07-22T11:34:22;100936.63;;;36.26;39.83
56042;BME280;48756;41.374;2.066;2022-07-22T11:36:48;100940.63;;;35.75;40.33
56042;BME280;48756;41.374;2.066;2022-07-22T11:39:14;100943.06;;;36.17;39.70
56042;BME280;48756;41.374;2.066;2022-07-22T11:41:42;100936.28;;;35.49;40.68
56042;BME280;48756;41.374;2.066;2022-07-22T11:44:08;100934.28;;;36.15;38.94
56042;BME280;48756;41.374;2.066;2022-07-22T11:46:37;100948.16;;;36.20;38.81
56042;BME280;48756;41.374;2.066;2022-07-22T11:49:03;100933.53;;;35.90;39.55
56042;BME280;48756;41.374;2.066;2022-07-22T11:51:29;100933.75;;;35.56;39.64
56042;BME280;48756;41.374;2.066;2022-07-22T11:53:55;100931.66;;;35.82;39.59
56042;BME280;48756;41.374;2.066;2022-07-22T11:56:21;100925.28;;;35.43;39.55
56042;BME280;48756;41.374;2.066;2022-07-22T11:58:47;100931.84;;;36.36;38.02
56042;BME280;48756;41.374;2.066;2022-07-22T12:01:20;100928.44;;;35.87;38.77
56042;BME280;48756;41.374;2.066;2022-07-22T12:03:50;100934.44;;;35.42;39.14
56042;BME280;48756;41.374;2.066;2022-07-22T12:06:17;100931.06;;;36.11;38.90
56042;BME280;48756;41.374;2.066;2022-07-22T12:08:44;100924.22;;;35.68;38.76
56042;BME280;48756;41.374;2.066;2022-07-22T12:11:10;100925.28;;;35.43;39.58
56042;BME280;48756;41.374;2.066;2022-07-22T12:13:38;100922.84;;;35.80;38.21
56042;BME280;48756;41.374;2.066;2022-07-22T12:18:56;100936.38;;;35.97;37.86
56042;BME280;48756;41.374;2.066;2022-07-22T12:21:22;100920.09;;;35.97;37.61
56042;BME280;48756;41.374;2.066;2022-07-22T12:23:52;100919.84;;;35.51;38.16
56042;BME280;48756;41.374;2.066;2022-07-22T12:26:17;100924.97;;;35.38;38.85
56042;BME280;48756;41.374;2.066;2022-07-22T12:28:43;100926.31;;;35.17;39.65
56042;BME280;48756;41.374;2.066;2022-07-22T12:31:08;100922.56;;;35.59;38.56
56042;BME280;48756;41.374;2.066;2022-07-22T12:33:34;100917.47;;;35.64;38.43
56042;BME280;48756;41.374;2.066;2022-07-22T12:36:00;100920.94;;;35.97;38.16
56042;BME280;48756;41.374;2.066;2022-07-22T12:38:26;100921.00;;;35.73;37.48
56042;BME280;48756;41.374;2.066;2022-07-22T12:40:51;100919.06;;;35.98;37.70
56042;BME280;48756;41.374;2.066;2022-07-22T12:43:17;100917.25;;;35.74;38.71
56042;BME280;48756;41.374;2.066;2022-07-22T12:45:42;100915.38;;;35.74;38.17
56042;BME280;48756;41.374;2.066;2022-07-22T12:48:08;100914.25;;;36.16;37.72
56042;BME280;48756;41.374;2.066;2022-07-22T12:50:38;100923.88;;;36.35;37.62
56042;BME280;48756;41.374;2.066;2022-07-22T12:53:05;100911.50;;;35.85;36.93
56042;BME280;48756;41.374;2.066;2022-07-22T12:55:32;100912.03;;;36.19;36.35
56042;BME280;48756;41.374;2.066;2022-07-22T12:58:00;100907.97;;;36.55;35.49
56042;BME280;48756;41.374;2.066;2022-07-22T13:00:27;100904.25;;;35.61;36.53